Time;durP1;ratioP1;P1;durP2;ratioP2;P2;SDS_P1;SDS_P2;PMS_P1;PMS_P2;Temp;Humidity;BMP_temperature;BMP_pressure;BME280_temperature;BME280_humidity;BME280_pressure;Samples;Min_cycle;Max_cycle;Signal;HPM_P1;HPM_P2
2021/05/01 00:01:51;;;;;;;7.57;5.53;;;16.20;83.20;;;;;;5034182;28;20096;-63
2021/05/01 00:04:17;;;;;;;7.35;5.70;;;16.10;83.10;;;;;;5021295;28;20048;-62
2021/05/01 00:06:43;;;;;;;6.97;5.65;;;16.10;83.20;;;;;;5014723;28;20032;-62
2021/05/01 00:09:09;;;;;;;9.10;5.80;;;16.00;83.10;;;;;;5014642;28;20029;-62
2021/05/01 00:11:34;;;;;;;6.05;5.15;;;16.00;83.20;;;;;;5023478;28;20029;-65
2021/05/01 00:14:00;;;;;;;7.32;5.45;;;16.00;83.30;;;;;;5025116;28;20533;-64
2021/05/01 00:16:27;;;;;;;6.63;5.07;;;16.00;83.20;;;;;;5014203;28;20072;-64
2021/05/01 00:18:53;;;;;;;5.97;4.78;;;15.90;83.30;;;;;;5014222;28;20021;-64
2021/05/01 00:21:19;;;;;;;7.43;5.43;;;15.90;83.40;;;;;;5014302;28;20082;-62
2021/05/01 00:23:45;;;;;;;8.02;5.45;;;15.90;83.40;;;;;;5013896;28;20076;-62
2021/05/01 00:26:11;;;;;;;7.88;5.32;;;16.00;83.40;;;;;;5014164;28;20110;-62
2021/05/01 00:28:37;;;;;;;5.97;5.05;;;16.00;83.20;;;;;;5014366;28;20092;-62
2021/05/01 00:31:03;;;;;;;5.97;4.70;;;15.90;83.30;;;;;;5014300;28;20030;-62
2021/05/01 00:33:29;;;;;;;6.95;5.05;;;15.90;83.10;;;;;;5018807;28;20025;-62
2021/05/01 00:35:55;;;;;;;6.57;5.03;;;15.90;83.20;;;;;;5033477;28;20039;-64
2021/05/01 00:38:20;;;;;;;7.00;4.80;;;15.90;83.10;;;;;;5033594;28;20064;-64
2021/05/01 00:40:46;;;;;;;5.63;4.38;;;15.90;83.10;;;;;;5033599;28;20489;-64
2021/05/01 00:43:12;;;;;;;7.35;5.25;;;15.90;82.90;;;;;;5021627;28;20669;-62
2021/05/01 00:45:37;;;;;;;6.60;5.00;;;15.90;82.90;;;;;;5020093;28;20036;-62
2021/05/01 00:48:03;;;;;;;8.48;5.50;;;15.90;82.70;;;;;;5031567;28;20030;-62
2021/05/01 00:50:29;;;;;;;5.18;4.63;;;15.90;82.70;;;;;;5033281;28;20132;-64
2021/05/01 00:52:55;;;;;;;5.30;4.40;;;15.90;82.70;;;;;;5032601;28;20136;-64
2021/05/01 00:55:21;;;;;;;5.97;4.85;;;15.90;82.60;;;;;;5013680;28;20038;-62
2021/05/01 00:57:47;;;;;;;6.32;5.10;;;15.90;82.60;;;;;;5013459;28;20160;-64
2021/05/01 01:02:47;;;;;;;5.82;4.72;;;15.80;82.60;;;;;;5014262;28;20022;-64
2021/05/01 01:05:13;;;;;;;5.82;4.45;;;15.80;82.70;;;;;;5031884;28;20113;-62
2021/05/01 01:07:39;;;;;;;6.03;4.28;;;15.70;82.70;;;;;;5033486;28;20036;-62
2021/05/01 01:10:05;;;;;;;5.95;5.20;;;15.70;82.60;;;;;;5034018;28;20032;-64
2021/05/01 01:12:30;;;;;;;8.07;4.97;;;15.60;82.90;;;;;;5027443;28;20410;-62
2021/05/01 01:14:59;;;;;;;7.82;4.82;;;15.60;83.00;;;;;;5019379;28;20040;-62
2021/05/01 01:17:25;;;;;;;5.90;4.78;;;15.60;83.10;;;;;;5014161;28;20030;-62
2021/05/01 01:19:50;;;;;;;5.95;4.72;;;15.50;83.70;;;;;;5013978;28;20403;-62
2021/05/01 01:22:17;;;;;;;6.75;4.90;;;15.50;83.20;;;;;;5014395;28;20121;-62
2021/05/01 01:24:43;;;;;;;7.78;5.10;;;15.40;83.20;;;;;;5014050;28;20014;-62
2021/05/01 01:27:09;;;;;;;7.97;4.88;;;15.40;83.40;;;;;;5014724;28;20048;-62
2021/05/01 01:29:39;;;;;;;6.55;5.05;;;15.40;83.50;;;;;;5014686;28;20026;-62
2021/05/01 01:32:06;;;;;;;5.82;4.75;;;15.40;83.50;;;;;;5014342;28;20060;-62
2021/05/01 01:34:32;;;;;;;6.22;4.55;;;15.30;83.60;;;;;;5029320;28;20462;-62
2021/05/01 01:36:58;;;;;;;7.57;5.10;;;15.30;83.70;;;;;;5019834;28;20079;-62
2021/05/01 01:39:24;;;;;;;5.90;5.03;;;15.30;83.80;;;;;;5014787;28;20505;-62
2021/05/01 01:41:50;;;;;;;6.18;4.97;;;15.30;83.90;;;;;;5014373;28;20030;-62
2021/05/01 01:44:15;;;;;;;9.52;5.53;;;15.20;83.90;;;;;;5015019;28;20080;-62
2021/05/01 01:46:41;;;;;;;6.70;4.70;;;15.20;84.20;;;;;;5014378;28;20478;-62
2021/05/01 01:49:07;;;;;;;6.35;5.57;;;15.20;84.30;;;;;;5018474;28;20092;-62
2021/05/01 01:51:32;;;;;;;9.38;5.75;;;15.10;84.30;;;;;;5018010;28;20046;-62
2021/05/01 01:53:58;;;;;;;8.70;5.85;;;15.10;84.40;;;;;;5019995;28;20033;-62
2021/05/01 01:56:26;;;;;;;6.32;5.25;;;15.10;84.60;;;;;;5037341;28;20068;-62
2021/05/01 01:58:53;;;;;;;6.80;5.45;;;15.10;84.70;;;;;;5038018;28;20059;-62
2021/05/01 02:01:18;;;;;;;6.75;5.38;;;15.00;84.80;;;;;;5036043;28;20037;-62
2021/05/01 02:03:44;;;;;;;7.55;6.00;;;15.00;85.00;;;;;;5037421;28;20472;-62
2021/05/01 02:06:10;;;;;;;7.55;5.72;;;15.00;85.10;;;;;;5037806;28;20029;-62
2021/05/01 02:08:35;;;;;;;8.68;5.55;;;15.00;85.10;;;;;;5037956;28;20048;-62
2021/05/01 02:11:01;;;;;;;9.18;6.97;;;15.00;85.10;;;;;;5027954;28;20053;-62
2021/05/01 02:13:27;;;;;;;7.93;6.22;;;14.90;85.30;;;;;;5017366;28;20030;-62
2021/05/01 02:15:53;;;;;;;7.82;6.22;;;14.90;85.30;;;;;;5024895;28;20359;-62
2021/05/01 02:18:18;;;;;;;8.13;6.75;;;14.90;85.60;;;;;;5017628;28;20466;-62
2021/05/01 02:20:44;;;;;;;8.82;6.90;;;14.90;85.80;;;;;;5028944;28;20091;-62
2021/05/01 02:23:12;;;;;;;9.55;7.40;;;14.90;85.80;;;;;;5017142;28;20268;-62
2021/05/01 02:25:38;;;;;;;9.52;7.15;;;14.90;85.90;;;;;;5016376;28;20284;-62
2021/05/01 02:28:04;;;;;;;10.00;7.90;;;14.90;85.70;;;;;;5024334;28;20033;-62
2021/05/01 02:30:30;;;;;;;10.93;8.77;;;14.90;85.80;;;;;;5024290;28;20034;-62
2021/05/01 02:32:57;;;;;;;9.88;7.63;;;14.90;85.90;;;;;;5026797;28;20474;-62
2021/05/01 02:35:31;;;;;;;13.23;8.82;;;14.90;85.80;;;;;;5035013;28;20079;-62
2021/05/01 02:37:57;;;;;;;12.90;9.30;;;14.80;85.80;;;;;;5035665;28;20040;-62
2021/05/01 02:40:28;;;;;;;11.95;9.18;;;14.80;86.10;;;;;;5029522;28;20089;-62
2021/05/01 02:42:54;;;;;;;12.30;9.65;;;14.80;86.20;;;;;;5026929;28;20032;-62
2021/05/01 02:45:20;;;;;;;10.65;9.30;;;14.80;86.20;;;;;;5027235;28;20120;-62
2021/05/01 02:47:46;;;;;;;11.85;9.75;;;14.80;86.30;;;;;;5029976;28;20069;-62
2021/05/01 02:50:13;;;;;;;9.45;7.82;;;14.80;86.40;;;;;;5024535;28;20462;-62
2021/05/01 02:52:39;;;;;;;12.05;9.77;;;14.80;86.30;;;;;;5029848;28;20045;-62
2021/05/01 02:55:07;;;;;;;13.90;10.43;;;14.80;86.50;;;;;;5033058;28;20025;-62
2021/05/01 02:57:33;;;;;;;12.15;9.30;;;14.80;86.60;;;;;;5016470;28;20034;-62
2021/05/01 03:00:02;;;;;;;11.02;9.32;;;14.80;86.60;;;;;;5031932;28;20025;-62
2021/05/01 03:02:29;;;;;;;11.10;9.27;;;14.90;86.90;;;;;;5029368;28;20354;-62
2021/05/01 03:04:55;;;;;;;11.27;9.13;;;14.90;87.10;;;;;;5019213;28;20390;-62
2021/05/01 03:07:24;;;;;;;12.13;9.48;;;14.90;87.00;;;;;;5028384;28;20036;-62
2021/05/01 03:09:50;;;;;;;11.95;9.25;;;15.00;87.10;;;;;;5014591;28;20187;-62
2021/05/01 03:12:16;;;;;;;11.18;8.90;;;15.10;87.10;;;;;;5023407;28;20567;-62
2021/05/01 03:14:43;;;;;;;12.65;9.57;;;15.10;87.10;;;;;;5030046;28;20034;-63
2021/05/01 03:17:08;;;;;;;12.05;9.68;;;15.20;87.10;;;;;;5018020;28;20029;-62
2021/05/01 03:19:34;;;;;;;11.23;9.15;;;15.30;87.10;;;;;;5022163;28;20022;-62
2021/05/01 03:22:00;;;;;;;14.20;10.40;;;15.40;87.00;;;;;;5021439;28;20017;-63
2021/05/01 03:24:26;;;;;;;11.40;10.20;;;15.50;87.00;;;;;;5025248;28;20036;-63
2021/05/01 03:26:51;;;;;;;12.27;10.60;;;15.60;86.90;;;;;;5025779;28;20539;-63
2021/05/01 03:29:17;;;;;;;13.65;8.93;;;15.80;86.70;;;;;;5015999;28;20109;-63
2021/05/01 03:31:42;;;;;;;12.95;8.93;;;15.90;86.60;;;;;;5014061;28;20470;-63
2021/05/01 03:34:08;;;;;;;10.77;9.60;;;16.00;86.40;;;;;;5026303;28;20457;-63
2021/05/01 03:36:34;;;;;;;10.07;8.27;;;16.10;86.40;;;;;;5023577;28;20116;-63
2021/05/01 03:38:59;;;;;;;11.60;8.68;;;16.20;86.40;;;;;;5014866;28;20022;-63
2021/05/01 03:41:25;;;;;;;9.55;7.93;;;16.40;86.30;;;;;;5015036;28;20022;-63
2021/05/01 03:43:51;;;;;;;9.63;8.30;;;16.60;86.30;;;;;;5014578;28;20091;-63
2021/05/01 03:46:16;;;;;;;11.48;8.75;;;16.80;86.10;;;;;;5014751;28;20132;-63
2021/05/01 03:48:42;;;;;;;11.20;8.93;;;16.90;86.10;;;;;;5014713;28;20037;-63
2021/05/01 03:51:08;;;;;;;10.73;7.97;;;17.10;86.00;;;;;;5014518;28;20034;-63
2021/05/01 03:53:33;;;;;;;11.05;8.85;;;17.40;85.80;;;;;;5019001;28;20049;-63
2021/05/01 03:55:59;;;;;;;10.77;8.20;;;17.60;85.40;;;;;;5021084;28;20026;-63
2021/05/01 03:58:25;;;;;;;9.88;8.23;;;17.90;85.40;;;;;;5014883;28;20375;-63
2021/05/01 04:00:51;;;;;;;9.85;7.82;;;18.20;84.90;;;;;;5014694;28;20045;-63
2021/05/01 04:03:16;;;;;;;8.48;7.28;;;18.70;84.10;;;;;;5031531;28;20099;-63
2021/05/01 04:05:42;;;;;;;9.07;7.72;;;19.20;82.80;;;;;;5034356;28;20025;-63
2021/05/01 04:08:08;;;;;;;8.30;7.03;;;19.80;80.90;;;;;;5034317;28;20044;-63
2021/05/01 04:10:34;;;;;;;9.02;6.78;;;20.50;78.90;;;;;;5034338;28;20025;-63
2021/05/01 04:13:00;;;;;;;8.57;6.65;;;21.20;76.30;;;;;;5031717;28;20029;-63
2021/05/01 04:15:26;;;;;;;7.82;6.78;;;21.90;73.50;;;;;;5034290;28;20033;-63
2021/05/01 04:17:53;;;;;;;8.15;6.20;;;22.50;71.00;;;;;;5034172;28;20035;-63
2021/05/01 04:20:19;;;;;;;7.07;5.95;;;23.00;69.20;;;;;;5034550;28;20021;-63
2021/05/01 04:22:45;;;;;;;9.57;6.55;;;23.40;67.00;;;;;;5033466;28;20030;-63
2021/05/01 04:25:12;;;;;;;8.05;6.88;;;23.50;65.40;;;;;;5034268;28;20021;-63
2021/05/01 04:27:38;;;;;;;10.48;6.68;;;23.60;64.60;;;;;;5034055;28;20385;-63
2021/05/01 04:30:06;;;;;;;8.68;7.07;;;23.80;64.20;;;;;;5034222;28;20045;-63
2021/05/01 04:32:31;;;;;;;7.47;6.68;;;24.10;63.20;;;;;;5022321;28;20026;-63
2021/05/01 04:34:57;;;;;;;8.88;6.80;;;24.30;62.50;;;;;;5014197;28;20034;-63
2021/05/01 04:37:22;;;;;;;8.38;6.38;;;24.50;62.00;;;;;;5018803;28;20108;-63
2021/05/01 04:39:48;;;;;;;7.22;6.47;;;24.80;61.40;;;;;;5013780;28;20124;-63
2021/05/01 04:42:15;;;;;;;7.70;6.10;;;25.10;60.70;;;;;;5014334;28;20053;-63
2021/05/01 04:44:40;;;;;;;7.38;6.38;;;25.60;60.00;;;;;;5014328;28;20113;-63
2021/05/01 04:47:06;;;;;;;7.40;5.97;;;26.00;58.90;;;;;;5014154;28;20065;-63
2021/05/01 04:49:32;;;;;;;8.25;6.10;;;26.50;58.80;;;;;;5013917;28;20025;-63
2021/05/01 04:51:59;;;;;;;7.50;5.85;;;27.00;57.40;;;;;;5033405;28;20045;-63
2021/05/01 04:54:25;;;;;;;7.90;5.15;;;27.40;56.50;;;;;;5034239;28;20032;-63
2021/05/01 04:56:50;;;;;;;6.38;5.45;;;27.80;55.50;;;;;;5017600;28;20121;-63
2021/05/01 04:59:16;;;;;;;6.13;5.28;;;28.10;54.70;;;;;;5027279;28;20033;-63
2021/05/01 05:01:42;;;;;;;7.65;5.65;;;28.30;53.90;;;;;;5018800;28;20029;-63
2021/05/01 05:04:07;;;;;;;6.43;5.35;;;28.50;53.40;;;;;;5021216;28;20022;-63
2021/05/01 05:06:33;;;;;;;6.15;4.72;;;28.70;52.90;;;;;;5014603;28;20030;-63
2021/05/01 05:09:00;;;;;;;6.75;5.28;;;28.80;52.30;;;;;;5015153;28;20018;-63
2021/05/01 05:11:26;;;;;;;5.97;5.05;;;28.90;52.10;;;;;;5033620;28;20112;-63
2021/05/01 05:13:52;;;;;;;6.60;5.07;;;28.90;51.80;;;;;;5033743;28;20022;-63
2021/05/01 05:16:18;;;;;;;6.53;5.40;;;28.80;51.10;;;;;;5034095;28;20124;-63
2021/05/01 05:18:44;;;;;;;7.18;5.60;;;28.60;51.00;;;;;;5033977;28;20032;-63
2021/05/01 05:21:09;;;;;;;6.30;5.70;;;28.40;51.30;;;;;;5014303;28;20026;-63
2021/05/01 05:23:35;;;;;;;6.22;5.40;;;28.30;51.00;;;;;;5013216;28;20470;-63
2021/05/01 05:26:00;;;;;;;7.60;5.88;;;28.20;50.90;;;;;;5013917;28;20449;-63
2021/05/01 05:28:26;;;;;;;7.03;5.30;;;28.20;50.40;;;;;;5014378;28;20061;-63
2021/05/01 05:30:52;;;;;;;7.25;5.97;;;27.80;50.30;;;;;;5029933;28;20060;-63
2021/05/01 05:33:18;;;;;;;7.20;6.13;;;27.20;50.80;;;;;;5033212;28;20136;-63
2021/05/01 05:35:43;;;;;;;7.40;5.93;;;26.50;51.70;;;;;;5028513;28;20494;-63
2021/05/01 05:38:09;;;;;;;8.50;6.45;;;25.80;52.80;;;;;;5013442;28;20501;-63
2021/05/01 05:40:35;;;;;;;9.40;6.60;;;25.20;53.90;;;;;;5026458;28;20017;-63
2021/05/01 05:43:01;;;;;;;8.75;6.00;;;24.50;54.80;;;;;;5032886;28;20033;-63
2021/05/01 05:45:30;;;;;;;7.55;6.30;;;24.00;56.00;;;;;;5012475;28;20022;-63
2021/05/01 05:47:56;;;;;;;8.07;6.22;;;23.60;56.90;;;;;;5012212;28;20510;-63
2021/05/01 05:50:22;;;;;;;6.72;6.03;;;23.20;57.80;;;;;;5011794;28;20426;-63
2021/05/01 05:52:48;;;;;;;7.50;5.95;;;22.80;58.40;;;;;;5012981;28;20152;-63
2021/05/01 05:55:15;;;;;;;7.43;6.25;;;22.60;58.70;;;;;;5013383;28;20385;-63
2021/05/01 05:57:48;;;;;;;7.70;6.35;;;22.30;59.30;;;;;;5017278;28;20030;-63
2021/05/01 06:00:14;;;;;;;8.73;7.70;;;22.10;59.90;;;;;;5032985;28;20051;-63
2021/05/01 06:02:42;;;;;;;10.10;7.70;;;21.90;60.20;;;;;;5032394;28;20057;-63
2021/05/01 06:05:24;;;;;;;9.35;7.07;;;21.70;60.80;;;;;;5025583;28;20404;-63
2021/05/01 06:07:54;;;;;;;9.98;7.20;;;21.50;61.30;;;;;;5012861;28;20044;-63
2021/05/01 06:10:20;;;;;;;8.70;7.38;;;21.40;61.80;;;;;;5012982;28;20026;-63
2021/05/01 06:12:47;;;;;;;9.80;7.40;;;21.20;62.20;;;;;;5012422;28;20037;-63
2021/05/01 06:15:16;;;;;;;7.70;6.28;;;21.10;62.70;;;;;;5013123;28;20033;-63
2021/05/01 06:17:43;;;;;;;10.45;6.85;;;20.90;63.00;;;;;;5013171;28;20041;-63
2021/05/01 06:20:12;;;;;;;7.88;6.72;;;20.80;63.40;;;;;;5012997;28;20026;-63
2021/05/01 06:22:38;;;;;;;7.30;6.30;;;20.80;63.70;;;;;;5013121;28;20029;-63
2021/05/01 06:25:10;;;;;;;7.40;6.30;;;20.60;64.00;;;;;;5012874;28;20022;-63
2021/05/01 06:27:36;;;;;;;7.40;6.43;;;20.60;64.50;;;;;;5012755;28;20223;-63
2021/05/01 06:30:04;;;;;;;7.60;5.85;;;20.50;64.90;;;;;;5013100;28;20034;-63
2021/05/01 06:32:30;;;;;;;9.15;7.10;;;20.50;65.10;;;;;;5013117;28;20085;-63
2021/05/01 06:34:58;;;;;;;8.68;6.50;;;20.50;64.90;;;;;;5016214;28;20041;-63
2021/05/01 06:37:25;;;;;;;7.32;6.40;;;20.40;64.90;;;;;;5016097;28;20026;-63
2021/05/01 06:39:54;;;;;;;7.50;5.93;;;20.30;65.10;;;;;;5016406;28;20014;-63
2021/05/01 06:42:30;;;;;;;7.53;5.57;;;20.30;65.50;;;;;;5016522;28;20440;-63
2021/05/01 06:45:02;;;;;;;7.03;5.75;;;20.30;65.70;;;;;;5034806;28;20025;-63
2021/05/01 06:47:29;;;;;;;7.78;6.05;;;20.20;65.70;;;;;;5036159;28;20416;-63
2021/05/01 06:50:04;;;;;;;7.38;5.95;;;20.20;65.90;;;;;;5036034;28;20033;-63
2021/05/01 06:52:30;;;;;;;6.25;5.22;;;20.20;66.10;;;;;;5035918;28;20068;-63
2021/05/01 06:55:01;;;;;;;6.68;5.97;;;20.10;66.50;;;;;;5035655;28;20060;-63
2021/05/01 06:57:27;;;;;;;7.47;5.25;;;20.10;66.50;;;;;;5035728;28;20045;-63
2021/05/01 06:59:55;;;;;;;7.55;6.13;;;20.10;66.60;;;;;;5036165;28;20022;-63
2021/05/01 07:02:26;;;;;;;8.45;6.65;;;20.00;66.70;;;;;;5031524;28;20037;-62
2021/05/01 07:04:52;;;;;;;;;;;20.00;66.90;;;;;;5031360;28;20029;-63
2021/05/01 07:07:21;;;;;;;7.90;6.05;;;20.00;66.80;;;;;;5019785;28;19910;-63
2021/05/01 07:09:47;;;;;;;6.85;6.07;;;20.00;67.00;;;;;;5025711;28;20428;-63
2021/05/01 07:12:13;;;;;;;7.45;6.65;;;20.00;66.90;;;;;;5035234;28;20026;-63
2021/05/01 07:14:41;;;;;;;8.75;7.35;;;19.90;67.30;;;;;;5035757;28;20044;-63
2021/05/01 07:17:07;;;;;;;8.43;6.78;;;20.00;67.70;;;;;;5035642;28;20029;-63
2021/05/01 07:19:34;;;;;;;9.77;7.07;;;20.00;67.10;;;;;;5025367;28;20478;-63
2021/05/01 07:22:00;;;;;;;7.53;6.63;;;20.00;67.30;;;;;;5015578;28;20026;-63
2021/05/01 07:24:26;;;;;;;9.38;7.75;;;19.90;67.10;;;;;;5031808;28;20378;-63
2021/05/01 07:26:57;;;;;;;9.10;6.90;;;20.00;67.10;;;;;;5035549;28;20124;-63
2021/05/01 07:29:37;;;;;;;7.40;6.28;;;20.00;66.50;;;;;;5035586;28;20071;-63
2021/05/01 07:32:04;;;;;;;7.53;5.78;;;20.00;66.30;;;;;;5035447;28;20034;-63
2021/05/01 07:34:32;;;;;;;7.57;6.55;;;20.00;65.80;;;;;;5046675;28;20385;-63
2021/05/01 07:37:03;;;;;;;6.97;5.63;;;20.00;65.60;;;;;;5029621;28;20494;-63
2021/05/01 07:39:31;;;;;;;7.18;5.93;;;20.00;65.50;;;;;;5035550;28;20478;-63
2021/05/01 07:42:00;;;;;;;7.30;5.95;;;20.00;65.10;;;;;;5035004;28;20021;-63
2021/05/01 07:44:28;;;;;;;6.57;5.70;;;20.10;64.60;;;;;;5034964;28;20029;-63
2021/05/01 07:46:54;;;;;;;7.10;5.88;;;20.10;64.20;;;;;;5034621;28;20397;-63
2021/05/01 07:49:21;;;;;;;6.68;5.97;;;20.10;64.10;;;;;;5035255;28;20505;-63
2021/05/01 07:51:46;;;;;;;7.15;6.10;;;20.10;63.40;;;;;;5034632;28;20142;-63
2021/05/01 07:54:13;;;;;;;7.43;5.70;;;20.10;63.20;;;;;;5034668;28;20071;-63
2021/05/01 07:56:39;;;;;;;7.18;6.47;;;20.10;63.40;;;;;;5019885;28;20026;-63
2021/05/01 07:59:05;;;;;;;8.57;6.78;;;20.10;63.40;;;;;;5019303;28;20033;-63
2021/05/01 08:01:32;;;;;;;6.72;6.03;;;20.20;63.50;;;;;;5023598;28;20042;-63
2021/05/01 08:03:57;;;;;;;6.90;5.85;;;20.20;63.40;;;;;;5024081;28;20029;-63
2021/05/01 08:06:24;;;;;;;7.47;6.53;;;20.20;63.30;;;;;;5029819;28;20029;-63
2021/05/01 08:08:49;;;;;;;7.07;6.38;;;20.20;63.20;;;;;;5025420;28;20366;-63
2021/05/01 08:11:15;;;;;;;7.57;6.65;;;20.20;63.10;;;;;;5014984;28;20026;-63
2021/05/01 08:13:41;;;;;;;8.18;6.72;;;20.20;63.60;;;;;;5024077;28;20469;-63
2021/05/01 08:16:07;;;;;;;8.23;6.30;;;20.30;63.60;;;;;;5034936;28;20103;-63
2021/05/01 08:18:32;;;;;;;6.78;5.90;;;20.30;63.50;;;;;;5034896;28;20021;-63
2021/05/01 08:20:58;;;;;;;8.10;6.05;;;20.20;62.90;;;;;;5035472;28;20056;-63
2021/05/01 08:23:24;;;;;;;6.80;5.75;;;20.20;62.80;;;;;;5035430;28;20025;-63
2021/05/01 08:25:50;;;;;;;7.82;6.03;;;20.20;62.20;;;;;;5035685;28;20030;-63
2021/05/01 08:28:16;;;;;;;7.88;5.95;;;20.20;61.90;;;;;;5034970;28;20033;-63
2021/05/01 08:30:42;;;;;;;7.68;6.07;;;20.20;61.50;;;;;;5034774;28;20061;-63
2021/05/01 08:33:08;;;;;;;7.20;6.13;;;20.20;62.00;;;;;;5031515;28;20014;-63
2021/05/01 08:35:34;;;;;;;7.15;6.15;;;20.20;60.90;;;;;;5000648;28;20025;-63
2021/05/01 08:37:59;;;;;;;8.82;6.82;;;20.20;60.70;;;;;;5018522;28;20088;-63
2021/05/01 08:40:25;;;;;;;7.50;6.63;;;20.20;60.60;;;;;;5015201;28;20247;-63
2021/05/01 08:42:51;;;;;;;9.98;6.57;;;20.20;60.60;;;;;;5015097;28;20026;-62
2021/05/01 08:45:18;;;;;;;8.48;6.32;;;20.10;60.20;;;;;;5033164;28;20118;-63
2021/05/01 08:47:47;;;;;;;9.40;6.53;;;20.10;60.20;;;;;;5034576;28;20500;-63
2021/05/01 08:50:31;;;;;;;9.10;7.07;;;20.00;60.10;;;;;;5034748;28;20382;-63
2021/05/01 08:52:59;;;;;;;7.28;5.85;;;20.00;59.80;;;;;;5034288;28;20060;-63
2021/05/01 08:55:26;;;;;;;9.07;6.55;;;19.90;59.70;;;;;;5034657;28;20067;-63
2021/05/01 08:57:53;;;;;;;8.50;7.38;;;19.90;59.90;;;;;;5033438;28;20033;-63
2021/05/01 09:00:19;;;;;;;7.78;6.95;;;19.80;61.40;;;;;;5034761;28;20021;-63
2021/05/01 09:02:46;;;;;;;7.75;6.15;;;19.80;62.00;;;;;;5034255;28;20032;-63
2021/05/01 09:05:12;;;;;;;7.32;6.55;;;19.80;61.70;;;;;;5033628;28;20056;-65
2021/05/01 09:07:41;;;;;;;8.60;6.82;;;19.80;61.70;;;;;;5033600;28;20099;-62
2021/05/01 09:10:07;;;;;;;7.15;6.40;;;19.80;62.10;;;;;;5032752;28;20029;-64
2021/05/01 09:12:43;;;;;;;7.38;6.50;;;19.80;62.20;;;;;;5034193;28;20034;-64
2021/05/01 09:15:12;;;;;;;8.10;7.13;;;19.80;61.90;;;;;;5034725;28;20033;-62
2021/05/01 09:17:39;;;;;;;6.82;6.07;;;19.80;61.40;;;;;;5034596;28;20029;-62
2021/05/01 09:20:07;;;;;;;8.23;6.80;;;19.70;61.30;;;;;;5034393;28;20022;-62
2021/05/01 09:22:58;;;;;;;7.75;6.40;;;19.70;61.00;;;;;;5034626;28;20473;-62
2021/05/01 09:25:31;;;;;;;8.82;6.30;;;19.70;60.80;;;;;;5023403;28;20068;-62
2021/05/01 09:28:13;;;;;;;9.02;7.50;;;19.70;61.00;;;;;;5034416;28;20040;-63
2021/05/01 09:30:41;;;;;;;7.53;6.22;;;19.70;60.90;;;;;;5034547;28;20473;-63
2021/05/01 09:33:27;;;;;;;9.73;7.28;;;19.70;61.10;;;;;;5031363;28;20030;-63
2021/05/01 09:36:13;;;;;;;7.05;6.35;;;19.70;61.10;;;;;;5019515;28;20033;-63
2021/05/01 09:38:59;;;;;;;7.80;6.75;;;19.70;61.30;;;;;;5033991;28;20030;-63
2021/05/01 09:41:37;;;;;;;9.40;7.25;;;19.70;60.90;;;;;;5032690;28;20021;-63
2021/05/01 09:44:07;;;;;;;9.73;8.38;;;19.70;60.70;;;;;;5034324;28;20033;-63
2021/05/01 09:46:39;;;;;;;7.95;6.78;;;19.70;60.80;;;;;;5034381;28;20017;-63
2021/05/01 09:49:27;;;;;;;9.48;8.52;;;19.70;61.80;;;;;;5028665;28;20018;-63
2021/05/01 09:52:06;;;;;;;8.68;7.78;;;19.60;61.50;;;;;;5034478;28;20046;-63
2021/05/01 09:54:34;;;;;;;11.60;8.20;;;19.60;61.90;;;;;;5034517;28;20088;-63
2021/05/01 09:57:11;;;;;;;11.13;7.55;;;19.60;62.30;;;;;;5028822;28;20029;-63
2021/05/01 09:59:56;;;;;;;9.10;7.28;;;19.60;62.60;;;;;;5028892;28;20052;-63
2021/05/01 10:02:33;;;;;;;8.90;6.55;;;19.60;62.60;;;;;;5029094;28;20037;-63
2021/05/01 10:05:05;;;;;;;8.93;7.43;;;19.60;62.10;;;;;;5034611;28;20041;-62
2021/05/01 10:07:34;;;;;;;9.18;7.35;;;19.60;61.80;;;;;;5028976;28;20366;-63
2021/05/01 10:09:59;;;;;;;7.90;6.95;;;19.50;61.60;;;;;;5015824;28;20452;-63
2021/05/01 10:12:40;;;;;;;8.85;7.88;;;19.50;61.90;;;;;;5017027;28;20033;-63
2021/05/01 10:15:19;;;;;;;8.40;7.50;;;19.40;62.40;;;;;;5018135;28;20040;-63
2021/05/01 10:17:49;;;;;;;8.85;7.95;;;19.40;62.40;;;;;;5033829;28;20037;-63
2021/05/01 10:20:15;;;;;;;9.55;8.13;;;19.40;62.60;;;;;;5037121;28;20044;-62
2021/05/01 10:22:50;;;;;;;8.57;7.32;;;19.40;62.60;;;;;;5037164;28;20034;-63
2021/05/01 10:25:18;;;;;;;6.57;5.82;;;19.40;63.10;;;;;;5037458;28;20045;-63
2021/05/01 10:28:00;;;;;;;6.57;5.68;;;19.40;61.50;;;;;;5037062;28;20029;-63
2021/05/01 10:30:39;;;;;;;7.30;6.30;;;19.40;61.00;;;;;;5037537;28;20520;-63
2021/05/01 10:33:19;;;;;;;8.32;6.53;;;19.40;60.50;;;;;;5037297;28;20025;-63
2021/05/01 10:36:00;;;;;;;8.98;7.05;;;19.40;60.50;;;;;;5031713;28;20104;-62
2021/05/01 10:38:26;;;;;;;6.95;5.95;;;19.50;60.00;;;;;;5017312;28;20037;-63
2021/05/01 10:40:54;;;;;;;8.55;7.47;;;19.50;60.00;;;;;;5017888;28;20026;-63
2021/05/01 10:43:26;;;;;;;9.05;6.82;;;19.50;60.00;;;;;;5017763;28;20020;-63
2021/05/01 10:46:07;;;;;;;7.20;6.38;;;19.60;59.50;;;;;;5017262;28;20037;-63
2021/05/01 10:48:51;;;;;;;7.90;7.13;;;19.60;59.50;;;;;;5017293;28;20065;-63
2021/05/01 10:51:27;;;;;;;9.35;7.65;;;19.60;59.70;;;;;;5023908;28;20090;-63
2021/05/01 10:54:21;;;;;;;7.88;6.55;;;19.60;59.80;;;;;;5034458;28;20037;-62
2021/05/01 10:56:52;;;;;;;6.97;5.93;;;19.60;59.40;;;;;;5036446;28;20381;-63
2021/05/01 10:59:32;;;;;;;8.52;6.55;;;19.60;58.80;;;;;;5037171;28;20376;-63
2021/05/01 11:02:01;;;;;;;8.45;6.43;;;19.60;58.80;;;;;;5036962;28;20104;-63
2021/05/01 11:04:29;;;;;;;10.35;6.47;;;19.60;58.70;;;;;;5037269;28;20030;-63
2021/05/01 11:07:06;;;;;;;9.25;8.10;;;19.60;58.20;;;;;;5036577;28;20032;-63
2021/05/01 11:09:44;;;;;;;7.10;6.40;;;19.70;58.50;;;;;;5035948;28;20025;-62
2021/05/01 11:12:34;;;;;;;5.85;5.05;;;19.70;57.50;;;;;;5036783;28;20022;-63
2021/05/01 11:15:10;;;;;;;5.03;4.32;;;19.80;57.10;;;;;;5036455;28;20033;-63
2021/05/01 11:17:42;;;;;;;8.05;5.95;;;19.70;57.30;;;;;;5036126;28;20087;-63
2021/05/01 11:20:09;;;;;;;6.72;5.20;;;19.80;57.30;;;;;;5035486;28;20022;-63
2021/05/01 11:22:37;;;;;;;5.50;4.88;;;19.80;57.40;;;;;;5036527;28;20099;-63
2021/05/01 11:25:11;;;;;;;6.00;5.22;;;19.80;57.40;;;;;;5036585;28;20021;-63
2021/05/01 11:27:38;;;;;;;6.22;5.60;;;19.80;58.30;;;;;;5036011;28;20057;-63
2021/05/01 11:30:05;;;;;;;7.28;5.30;;;19.90;58.10;;;;;;5036132;28;20109;-63
2021/05/01 11:32:31;;;;;;;5.65;4.78;;;19.90;57.60;;;;;;5035932;28;20037;-63
2021/05/01 11:35:13;;;;;;;5.57;4.90;;;19.90;56.50;;;;;;5017744;28;20026;-63
2021/05/01 11:37:40;;;;;;;5.70;5.10;;;20.00;56.20;;;;;;5031285;28;20029;-63
2021/05/01 11:40:08;;;;;;;5.28;4.78;;;20.00;57.60;;;;;;5016288;28;20033;-63
2021/05/01 11:42:37;;;;;;;5.43;4.82;;;20.00;56.90;;;;;;5016519;28;20112;-63
2021/05/01 11:45:09;;;;;;;7.93;5.55;;;20.00;57.80;;;;;;5035909;28;20025;-63
2021/05/01 11:47:38;;;;;;;5.95;5.30;;;20.00;57.20;;;;;;5019664;28;20489;-63
2021/05/01 11:50:05;;;;;;;5.95;5.03;;;20.00;56.90;;;;;;5014104;28;20049;-63
2021/05/01 11:53:09;;;;;;;6.50;5.03;;;20.00;56.30;;;;;;5014914;28;20465;-62
2021/05/01 11:55:57;;;;;;;6.97;5.63;;;20.10;56.10;;;;;;5015872;28;20477;-62
2021/05/01 11:58:31;;;;;;;6.78;6.05;;;20.10;56.20;;;;;;5015857;28;20045;-63
2021/05/01 12:01:16;;;;;;;6.68;5.57;;;20.10;57.10;;;;;;5016795;28;20041;-63
2021/05/01 12:04:02;;;;;;;7.20;6.30;;;20.10;58.90;;;;;;5035505;28;20131;-63
2021/05/01 12:06:43;;;;;;;7.35;5.90;;;20.10;58.40;;;;;;5035686;28;20026;-63
2021/05/01 12:09:18;;;;;;;9.02;7.00;;;19.90;58.50;;;;;;5016580;28;20026;-63
2021/05/01 12:11:47;;;;;;;7.82;5.60;;;19.90;59.20;;;;;;5015099;28;20026;-63
2021/05/01 12:14:14;;;;;;;5.10;4.60;;;19.90;58.50;;;;;;5015617;28;20420;-62
2021/05/01 12:16:42;;;;;;;6.78;5.03;;;19.90;57.10;;;;;;5015905;28;20488;-63
2021/05/01 12:19:25;;;;;;;6.47;4.53;;;19.90;56.50;;;;;;5015570;28;20115;-63
2021/05/01 12:21:52;;;;;;;6.15;4.97;;;19.90;56.10;;;;;;5015394;28;20477;-62
2021/05/01 12:24:29;;;;;;;6.63;4.78;;;20.00;55.90;;;;;;5015635;28;20093;-63
2021/05/01 12:26:55;;;;;;;6.90;5.50;;;20.00;55.60;;;;;;5015797;28;20539;-63
2021/05/01 12:29:25;;;;;;;9.43;6.05;;;20.10;57.60;;;;;;5015464;28;20033;-63
2021/05/01 12:32:23;;;;;;;5.78;5.18;;;20.10;59.00;;;;;;5014718;28;20036;-63
2021/05/01 12:34:56;;;;;;;5.97;4.60;;;20.00;57.50;;;;;;5014693;28;20037;-62
2021/05/01 12:37:22;;;;;;;5.70;5.10;;;20.00;56.20;;;;;;5031759;28;20057;-62
2021/05/01 12:39:48;;;;;;;7.80;6.00;;;20.00;56.70;;;;;;5034179;28;20040;-63
2021/05/01 12:42:40;;;;;;;6.70;6.00;;;20.00;58.10;;;;;;5034673;28;20025;-62
2021/05/01 12:45:32;;;;;;;6.68;5.97;;;20.00;58.90;;;;;;5034120;28;20061;-63
2021/05/01 12:47:58;;;;;;;7.32;6.07;;;19.90;58.80;;;;;;5034960;28;20473;-63
2021/05/01 12:50:25;;;;;;;6.20;5.20;;;19.90;59.30;;;;;;5034335;28;20033;-63
2021/05/01 12:52:53;;;;;;;6.55;5.32;;;19.90;59.40;;;;;;5034461;28;20414;-63
2021/05/01 12:55:19;;;;;;;7.03;5.13;;;19.80;58.70;;;;;;5035437;28;20103;-64
2021/05/01 12:57:47;;;;;;;5.63;4.88;;;19.70;59.30;;;;;;5038538;28;20029;-63